createdAt,value
2023-04-09T00:01:15.636Z,13.21
2023-04-09T00:03:17.302Z,13.21
2023-04-09T00:05:18.871Z,13.19
2023-04-09T00:07:20.484Z,13.09
2023-04-09T00:09:22.034Z,13.03
2023-04-09T00:11:23.605Z,12.99
2023-04-09T00:13:31.910Z,12.97
2023-04-09T00:15:42.075Z,12.96
2023-04-09T00:17:43.786Z,12.93
2023-04-09T00:19:45.373Z,12.97
2023-04-09T00:21:47.297Z,13.00
2023-04-09T00:23:48.873Z,12.95
2023-04-09T00:25:50.462Z,12.93
2023-04-09T00:27:52.016Z,12.95
2023-04-09T00:29:53.820Z,12.99
2023-04-09T00:31:56.842Z,13.04
2023-04-09T00:33:58.503Z,13.05
2023-04-09T00:36:00.139Z,13.07
2023-04-09T00:38:01.863Z,13.08
2023-04-09T00:40:04.209Z,13.06
2023-04-09T00:42:05.801Z,13.08
2023-04-09T00:44:07.359Z,13.05
2023-04-09T00:46:08.936Z,12.99
2023-04-09T00:48:12.611Z,12.95
2023-04-09T00:50:14.147Z,12.97
2023-04-09T00:52:15.710Z,12.94
2023-04-09T00:54:17.368Z,12.92
2023-04-09T00:56:21.880Z,13.12
2023-04-09T00:58:23.454Z,13.18
2023-04-09T01:00:29.110Z,13.15
2023-04-09T01:02:30.949Z,13.10
2023-04-09T01:04:34.253Z,13.10
2023-04-09T01:06:42.330Z,13.11
2023-04-09T01:08:51.761Z,13.12
2023-04-09T01:11:02.654Z,13.10
2023-04-09T01:13:09.934Z,13.12
2023-04-09T01:15:15.355Z,13.11
2023-04-09T01:17:22.021Z,13.15
2023-04-09T01:19:43.789Z,13.03
2023-04-09T01:21:45.946Z,13.02
2023-04-09T01:23:57.021Z,13.02
2023-04-09T01:26:04.413Z,12.99
2023-04-09T01:28:16.236Z,12.94
2023-04-09T01:30:18.745Z,12.95
2023-04-09T01:32:22.086Z,12.94
2023-04-09T01:34:24.315Z,12.96
2023-04-09T01:36:26.853Z,12.96
2023-04-09T01:38:28.391Z,12.86
2023-04-09T01:40:30.282Z,12.79
2023-04-09T01:42:32.875Z,12.72
2023-04-09T01:44:38.330Z,12.71
2023-04-09T01:46:40.657Z,12.88
2023-04-09T01:48:43.511Z,12.95
2023-04-09T01:50:45.347Z,12.96
2023-04-09T01:52:47.298Z,12.91
2023-04-09T01:54:49.129Z,12.88
2023-04-09T01:56:50.639Z,12.79
2023-04-09T01:58:52.554Z,12.64
2023-04-09T02:01:01.052Z,12.41
2023-04-09T02:03:08.216Z,12.36
2023-04-09T02:05:12.022Z,12.32
2023-04-09T02:07:27.868Z,12.30
2023-04-09T02:09:31.562Z,12.24
2023-04-09T02:11:34.450Z,12.24
2023-04-09T02:13:37.522Z,12.13
2023-04-09T02:15:40.456Z,12.09
2023-04-09T02:17:43.475Z,12.15
2023-04-09T02:19:46.509Z,12.13
2023-04-09T02:21:48.038Z,12.24
2023-04-09T02:23:49.642Z,12.28
2023-04-09T02:25:52.518Z,12.31
2023-04-09T02:27:54.040Z,12.25
2023-04-09T02:29:55.597Z,12.19
2023-04-09T02:31:57.244Z,12.15
2023-04-09T02:34:00.099Z,12.14
2023-04-09T02:36:01.724Z,12.17
2023-04-09T02:38:03.725Z,12.04
2023-04-09T02:40:06.486Z,12.03
2023-04-09T02:42:08.107Z,12.01
2023-04-09T02:44:09.738Z,11.89
2023-04-09T02:46:11.380Z,11.94
2023-04-09T02:48:12.967Z,12.00
2023-04-09T02:50:15.923Z,12.00
2023-04-09T02:52:17.523Z,11.93
2023-04-09T02:54:19.103Z,11.92
2023-04-09T02:56:20.666Z,11.89
2023-04-09T02:58:22.199Z,11.88
2023-04-09T03:00:23.908Z,11.84
2023-04-09T03:02:25.598Z,11.81
2023-04-09T03:04:27.312Z,11.73
2023-04-09T03:06:33.092Z,11.71
2023-04-09T03:08:34.609Z,11.67
2023-04-09T03:10:36.192Z,11.67
2023-04-09T03:12:37.793Z,11.71
2023-04-09T03:14:39.366Z,11.73
2023-04-09T03:16:40.845Z,11.75
2023-04-09T03:18:42.472Z,11.76
2023-04-09T03:20:44.095Z,11.78
2023-04-09T03:22:46.997Z,11.77
2023-04-09T03:24:48.643Z,11.75
2023-04-09T03:26:50.289Z,11.79
2023-04-09T03:28:51.961Z,11.78
2023-04-09T03:30:53.710Z,11.82
2023-04-09T03:32:55.333Z,11.81
2023-04-09T03:34:56.888Z,11.92
2023-04-09T03:36:58.465Z,11.93
2023-04-09T03:39:01.354Z,11.82
2023-04-09T03:41:02.907Z,11.77
2023-04-09T03:43:04.538Z,11.83
2023-04-09T03:45:06.923Z,11.76
2023-04-09T03:47:08.423Z,11.77
2023-04-09T03:49:09.957Z,11.77
2023-04-09T03:51:12.033Z,11.78
2023-04-09T03:53:13.597Z,11.83
2023-04-09T03:55:16.567Z,11.88
2023-04-09T03:57:18.047Z,11.87
2023-04-09T03:59:19.538Z,11.80
2023-04-09T04:01:21.115Z,11.83
2023-04-09T04:03:22.668Z,11.79
2023-04-09T04:05:24.635Z,11.77
2023-04-09T04:07:26.279Z,11.84
2023-04-09T04:09:27.818Z,11.88
2023-04-09T04:11:31.159Z,11.85
2023-04-09T04:13:32.770Z,11.83
2023-04-09T04:15:34.409Z,11.82
2023-04-09T04:17:35.970Z,11.88
2023-04-09T04:19:37.499Z,11.88
2023-04-09T04:21:39.067Z,11.78
2023-04-09T04:23:40.629Z,11.78
2023-04-09T04:25:42.643Z,11.70
2023-04-09T04:27:45.538Z,11.72
2023-04-09T04:29:47.033Z,11.73
2023-04-09T04:31:48.623Z,11.75
2023-04-09T04:33:50.205Z,11.78
2023-04-09T04:35:51.814Z,11.78
2023-04-09T04:37:53.347Z,11.81
2023-04-09T04:39:54.878Z,11.79
2023-04-09T04:41:56.392Z,11.78
2023-04-09T04:43:59.256Z,11.79
2023-04-09T04:46:00.859Z,11.79
2023-04-09T04:48:02.409Z,11.84
2023-04-09T04:50:04.795Z,11.82
2023-04-09T04:52:06.380Z,11.79
2023-04-09T04:54:07.916Z,11.88
2023-04-09T04:56:13.061Z,11.93
2023-04-09T04:58:14.653Z,11.95
2023-04-09T05:00:17.576Z,11.91
2023-04-09T05:02:19.406Z,11.94
2023-04-09T05:04:21.174Z,11.99
2023-04-09T05:06:22.774Z,11.98
2023-04-09T05:08:24.292Z,11.94
2023-04-09T05:10:26.026Z,11.95
2023-04-09T05:12:27.514Z,11.93
2023-04-09T05:14:29.076Z,11.89
2023-04-09T05:16:33.194Z,11.89
2023-04-09T05:18:34.814Z,11.91
2023-04-09T05:20:36.399Z,11.87
2023-04-09T05:22:37.947Z,11.89
2023-04-09T05:24:39.485Z,11.93
2023-04-09T05:26:41.066Z,11.92
2023-04-09T05:28:42.640Z,11.90
2023-04-09T05:30:46.387Z,11.85
2023-04-09T05:32:49.558Z,11.73
2023-04-09T05:34:51.194Z,11.64
2023-04-09T05:36:53.883Z,11.53
2023-04-09T05:38:55.747Z,11.58
2023-04-09T05:40:57.573Z,11.54
2023-04-09T05:42:59.098Z,11.54
2023-04-09T05:45:00.635Z,11.60
2023-04-09T05:47:02.263Z,11.63
2023-04-09T05:49:05.187Z,11.70
2023-04-09T05:51:06.815Z,11.69
2023-04-09T05:53:08.346Z,11.66
2023-04-09T05:55:10.123Z,11.67
2023-04-09T05:57:11.679Z,11.69
2023-04-09T05:59:13.229Z,11.71
2023-04-09T06:01:14.769Z,11.69
2023-04-09T06:03:16.464Z,11.77
2023-04-09T06:05:19.503Z,11.82
2023-04-09T06:07:21.052Z,11.84
2023-04-09T06:09:22.666Z,11.84
2023-04-09T06:11:24.211Z,11.93
2023-04-09T06:13:25.786Z,11.85
2023-04-09T06:15:27.776Z,11.87
2023-04-09T06:17:29.401Z,11.83
2023-04-09T06:19:30.987Z,11.76
2023-04-09T06:21:34.179Z,11.77
2023-04-09T06:23:36.632Z,11.84
2023-04-09T06:25:38.192Z,11.82
2023-04-09T06:27:39.788Z,11.92
2023-04-09T06:29:41.278Z,12.00
2023-04-09T06:31:43.013Z,12.05
2023-04-09T06:33:44.747Z,12.06
2023-04-09T06:35:46.405Z,12.12
2023-04-09T06:37:49.362Z,12.13
2023-04-09T06:40:00.668Z,12.19
2023-04-09T06:42:03.308Z,12.19
2023-04-09T06:44:04.866Z,12.26
2023-04-09T06:46:06.821Z,12.28
2023-04-09T06:48:08.554Z,12.37
2023-04-09T06:50:10.542Z,12.40
2023-04-09T06:52:12.108Z,12.46
2023-04-09T06:54:15.021Z,12.50
2023-04-09T06:56:16.643Z,12.56
2023-04-09T06:58:18.252Z,12.61
2023-04-09T07:00:19.787Z,12.64
2023-04-09T07:02:21.647Z,12.69
2023-04-09T07:04:23.350Z,12.71
2023-04-09T07:06:25.084Z,12.76
2023-04-09T07:08:26.922Z,12.79
2023-04-09T07:10:29.870Z,12.84
2023-04-09T07:12:32.578Z,12.90
2023-04-09T07:14:34.121Z,12.95
2023-04-09T07:16:35.692Z,12.96
2023-04-09T07:18:37.252Z,12.99
2023-04-09T07:20:38.803Z,13.04
2023-04-09T07:22:40.406Z,13.08
2023-04-09T07:24:41.994Z,13.10
2023-04-09T07:26:44.900Z,13.21
2023-04-09T07:28:46.485Z,13.21
2023-04-09T07:30:48.028Z,13.33
2023-04-09T07:32:49.785Z,13.44
2023-04-09T07:34:51.799Z,13.52
2023-04-09T07:36:53.356Z,13.57
2023-04-09T07:38:55.215Z,13.61
2023-04-09T07:40:57.066Z,13.62
2023-04-09T07:42:59.973Z,13.63
2023-04-09T07:45:01.552Z,13.59
2023-04-09T07:47:03.931Z,13.64
2023-04-09T07:49:05.516Z,13.68
2023-04-09T07:51:07.414Z,13.75
2023-04-09T07:53:08.993Z,13.70
2023-04-09T07:55:10.586Z,13.74
2023-04-09T07:57:12.154Z,13.88
2023-04-09T07:59:15.450Z,14.01
2023-04-09T08:01:17.197Z,14.15
2023-04-09T08:03:19.078Z,14.24
2023-04-09T08:05:21.185Z,14.33
2023-04-09T08:07:22.982Z,14.38
2023-04-09T08:09:24.668Z,14.46
2023-04-09T08:11:26.296Z,14.51
2023-04-09T08:13:27.900Z,14.56
2023-04-09T08:15:30.747Z,14.64
2023-04-09T08:17:32.386Z,14.75
2023-04-09T08:19:33.997Z,14.82
2023-04-09T08:21:37.224Z,14.90
2023-04-09T08:23:38.871Z,14.97
2023-04-09T08:25:40.417Z,14.96
2023-04-09T08:27:42.008Z,14.95
2023-04-09T08:29:43.552Z,15.03
2023-04-09T08:31:46.470Z,15.10
2023-04-09T08:33:47.993Z,15.17
2023-04-09T08:35:49.644Z,15.20
2023-04-09T08:37:51.212Z,15.23
2023-04-09T08:39:52.742Z,15.33
2023-04-09T08:41:58.437Z,15.38
2023-04-09T08:44:00.273Z,15.44
2023-04-09T08:46:01.998Z,15.49
2023-04-09T08:48:08.441Z,15.51
2023-04-09T08:50:10.620Z,15.45
2023-04-09T08:52:12.121Z,15.45
2023-04-09T08:54:15.680Z,15.52
2023-04-09T08:56:17.267Z,15.65
2023-04-09T08:58:18.802Z,15.68
2023-04-09T09:00:20.524Z,15.60
2023-04-09T09:02:22.347Z,15.58
2023-04-09T09:04:25.513Z,15.56
2023-04-09T09:06:28.565Z,15.56
2023-04-09T09:08:30.137Z,15.46
2023-04-09T09:10:37.564Z,15.54
2023-04-09T09:12:41.210Z,15.52
2023-04-09T09:14:42.688Z,15.47
2023-04-09T09:17:02.842Z,15.43
2023-04-09T09:19:04.448Z,15.53
2023-04-09T09:21:14.366Z,15.50
2023-04-09T09:23:17.959Z,15.47
2023-04-09T09:25:19.944Z,15.49
2023-04-09T09:27:33.110Z,15.54
2023-04-09T09:29:41.839Z,15.57
2023-04-09T09:31:47.224Z,15.60
2023-04-09T09:33:49.127Z,15.60
2023-04-09T09:35:52.041Z,15.72
2023-04-09T09:38:04.653Z,15.82
2023-04-09T09:40:07.911Z,15.92
2023-04-09T09:42:09.485Z,15.94
2023-04-09T09:44:12.699Z,15.94
2023-04-09T09:46:15.509Z,15.92
2023-04-09T09:48:17.173Z,15.89
2023-04-09T09:50:20.016Z,15.89
2023-04-09T09:52:25.536Z,15.89
2023-04-09T09:54:35.562Z,15.91
2023-04-09T09:56:38.982Z,15.86
2023-04-09T09:58:44.014Z,15.83
2023-04-09T10:00:47.720Z,15.82
2023-04-09T10:02:56.741Z,15.80
2023-04-09T10:05:01.210Z,15.82
2023-04-09T10:07:05.321Z,15.78
2023-04-09T10:09:07.323Z,15.72
2023-04-09T10:11:10.407Z,15.75
2023-04-09T10:13:16.187Z,15.76
2023-04-09T10:15:18.497Z,15.76
2023-04-09T10:17:20.193Z,15.79
2023-04-09T10:19:22.129Z,15.79
2023-04-09T10:21:32.710Z,15.80
2023-04-09T10:23:38.781Z,15.80
2023-04-09T10:25:41.676Z,15.78
2023-04-09T10:27:44.888Z,15.83
2023-04-09T10:29:47.676Z,15.82
2023-04-09T10:31:52.830Z,15.85
2023-04-09T10:33:54.408Z,15.89
2023-04-09T10:36:00.078Z,15.91
2023-04-09T10:38:01.652Z,15.93
2023-04-09T10:40:03.973Z,15.96
2023-04-09T10:42:11.538Z,16.16
2023-04-09T10:44:25.014Z,16.21
2023-04-09T10:46:28.784Z,16.26
2023-04-09T10:48:33.266Z,16.34
2023-04-09T10:50:34.801Z,16.41
2023-04-09T10:52:40.629Z,16.61
2023-04-09T10:54:46.136Z,16.72
2023-04-09T10:57:12.426Z,16.69
2023-04-09T10:59:13.968Z,16.58
2023-04-09T11:01:23.071Z,16.59
2023-04-09T11:03:26.308Z,16.67
2023-04-09T11:05:33.874Z,16.72
2023-04-09T11:07:44.702Z,16.86
2023-04-09T11:09:47.530Z,16.96
2023-04-09T11:11:53.108Z,16.99
2023-04-09T11:13:59.011Z,16.69
2023-04-09T11:16:00.625Z,16.69
2023-04-09T11:18:03.727Z,16.75
2023-04-09T11:20:06.535Z,16.74
2023-04-09T11:22:08.119Z,16.76
2023-04-09T11:24:11.889Z,16.80
2023-04-09T11:26:13.468Z,16.76
2023-04-09T11:28:15.091Z,16.60
2023-04-09T11:30:17.037Z,16.58
2023-04-09T11:32:20.601Z,16.73
2023-04-09T11:34:27.624Z,16.75
2023-04-09T11:36:29.343Z,16.61
2023-04-09T11:38:31.645Z,16.71
2023-04-09T11:40:33.319Z,16.76
2023-04-09T11:42:34.933Z,16.77
2023-04-09T11:44:36.526Z,16.80
2023-04-09T11:46:38.849Z,16.86
2023-04-09T11:48:40.589Z,16.89
2023-04-09T11:50:43.720Z,16.79
2023-04-09T11:52:45.760Z,16.71
2023-04-09T11:54:48.977Z,16.73
2023-04-09T11:56:50.528Z,16.83
2023-04-09T11:58:54.910Z,16.70
2023-04-09T12:00:58.715Z,16.66
2023-04-09T12:03:02.953Z,16.73
2023-04-09T12:05:05.525Z,16.72
2023-04-09T12:07:09.513Z,16.77
2023-04-09T12:09:11.053Z,16.79
2023-04-09T12:11:15.268Z,16.86
2023-04-09T12:13:16.824Z,16.88
2023-04-09T12:15:19.869Z,16.89
2023-04-09T12:17:21.430Z,16.76
2023-04-09T12:19:25.518Z,16.78
2023-04-09T12:21:45.374Z,16.87
2023-04-09T12:23:48.347Z,16.80
2023-04-09T12:25:49.904Z,16.86
2023-04-09T12:27:51.406Z,16.89
2023-04-09T12:29:52.957Z,16.93
2023-04-09T12:31:54.564Z,17.83
2023-04-09T12:33:56.242Z,18.22
2023-04-09T12:35:57.779Z,18.18
2023-04-09T12:37:59.488Z,18.12
2023-04-09T12:40:02.570Z,18.07
2023-04-09T12:42:04.181Z,18.00
2023-04-09T12:44:05.834Z,17.88
2023-04-09T12:46:07.434Z,17.77
2023-04-09T12:48:09.050Z,17.70
2023-04-09T12:50:12.442Z,17.83
2023-04-09T12:52:13.962Z,17.78
2023-04-09T12:54:15.452Z,17.79
2023-04-09T12:56:18.380Z,17.86
2023-04-09T12:58:19.967Z,17.76
2023-04-09T13:00:21.459Z,17.90
2023-04-09T13:02:23.583Z,17.92
2023-04-09T13:04:25.266Z,18.02
2023-04-09T13:06:27.047Z,18.12
2023-04-09T13:08:28.588Z,18.28
2023-04-09T13:10:31.304Z,18.47
2023-04-09T13:12:34.186Z,18.45
2023-04-09T13:14:35.796Z,18.48
2023-04-09T13:16:41.059Z,18.38
2023-04-09T13:18:42.614Z,18.34
2023-04-09T13:20:44.229Z,18.34
2023-04-09T13:22:46.972Z,18.35
2023-04-09T13:24:48.581Z,18.41
2023-04-09T13:26:50.241Z,18.27
2023-04-09T13:28:53.374Z,18.33
2023-04-09T13:30:55.163Z,18.29
2023-04-09T13:32:56.839Z,18.38
2023-04-09T13:34:58.442Z,18.14
2023-04-09T13:37:00.024Z,18.18
2023-04-09T13:39:01.774Z,18.15
2023-04-09T13:41:03.566Z,18.17
2023-04-09T13:43:05.168Z,18.27
2023-04-09T13:45:08.945Z,18.23
2023-04-09T13:47:11.021Z,18.24
2023-04-09T13:49:12.617Z,18.24
2023-04-09T13:51:14.226Z,18.27
2023-04-09T13:53:15.775Z,18.25
2023-04-09T13:55:17.434Z,18.24
2023-04-09T13:57:18.985Z,18.27
2023-04-09T13:59:20.604Z,18.35
2023-04-09T14:01:23.569Z,18.51
2023-04-09T14:03:25.193Z,18.53
2023-04-09T14:05:26.800Z,18.61
2023-04-09T14:07:28.405Z,18.59
2023-04-09T14:09:30.043Z,18.47
2023-04-09T14:11:31.577Z,18.46
2023-04-09T14:13:33.119Z,18.39
2023-04-09T14:15:34.745Z,18.38
2023-04-09T14:17:37.826Z,18.41
2023-04-09T14:19:39.576Z,18.34
2023-04-09T14:21:41.281Z,18.24
2023-04-09T14:23:42.834Z,18.28
2023-04-09T14:25:44.807Z,18.31
2023-04-09T14:27:46.393Z,18.20
2023-04-09T14:29:47.936Z,18.15
2023-04-09T14:31:49.656Z,18.20
2023-04-09T14:33:52.770Z,18.10
2023-04-09T14:35:54.425Z,18.03
2023-04-09T14:37:55.925Z,18.01
2023-04-09T14:39:57.806Z,17.97
2023-04-09T14:41:59.339Z,17.95
2023-04-09T14:44:00.877Z,17.94
2023-04-09T14:46:02.497Z,17.90
2023-04-09T14:48:04.154Z,17.94
2023-04-09T14:50:08.253Z,17.87
2023-04-09T14:52:09.858Z,17.99
2023-04-09T14:54:11.386Z,17.92
2023-04-09T14:56:13.009Z,17.89
2023-04-09T14:58:14.560Z,17.85
2023-04-09T15:00:16.285Z,17.84
2023-04-09T15:02:17.900Z,17.81
2023-04-09T15:04:19.732Z,17.80
2023-04-09T15:06:26.117Z,17.80
2023-04-09T15:08:27.672Z,17.80
2023-04-09T15:10:29.231Z,17.77
2023-04-09T15:12:31.354Z,17.82
2023-04-09T15:14:32.921Z,17.84
2023-04-09T15:16:34.641Z,17.80
2023-04-09T15:18:36.294Z,17.76
2023-04-09T15:20:38.384Z,17.70
2023-04-09T15:22:41.396Z,17.78
2023-04-09T15:24:42.943Z,17.77
2023-04-09T15:26:44.445Z,17.91
2023-04-09T15:28:46.139Z,17.93
2023-04-09T15:30:47.711Z,17.93
2023-04-09T15:32:49.271Z,17.99
2023-04-09T15:34:50.877Z,17.91
2023-04-09T15:36:52.745Z,17.93
2023-04-09T15:38:55.831Z,17.90
2023-04-09T15:40:57.476Z,17.93
2023-04-09T15:42:59.111Z,18.01
2023-04-09T15:45:00.688Z,18.07
2023-04-09T15:47:02.277Z,18.02
2023-04-09T15:49:04.615Z,18.00
2023-04-09T15:51:06.399Z,18.04
2023-04-09T15:53:08.049Z,18.04
2023-04-09T15:55:11.312Z,18.04
2023-04-09T15:57:12.864Z,18.02
2023-04-09T15:59:14.401Z,18.02
2023-04-09T16:01:15.996Z,18.10
2023-04-09T16:03:18.393Z,18.20
2023-04-09T16:05:23.384Z,18.30
2023-04-09T16:07:24.976Z,18.13
2023-04-09T16:09:26.604Z,18.11
2023-04-09T16:11:29.482Z,17.96
2023-04-09T16:13:31.241Z,17.96
2023-04-09T16:15:32.895Z,17.90
2023-04-09T16:17:40.283Z,17.85
2023-04-09T16:19:43.141Z,17.73
2023-04-09T16:21:44.790Z,17.73
2023-04-09T16:23:46.333Z,17.69
2023-04-09T16:25:48.139Z,17.63
2023-04-09T16:27:51.185Z,17.61
2023-04-09T16:29:52.734Z,17.60
2023-04-09T16:31:54.359Z,17.64
2023-04-09T16:33:56.068Z,17.66
2023-04-09T16:35:57.643Z,17.66
2023-04-09T16:37:59.179Z,17.67
2023-04-09T16:40:00.739Z,17.67
2023-04-09T16:42:02.325Z,17.61
2023-04-09T16:44:05.278Z,17.58
2023-04-09T16:46:06.917Z,17.61
2023-04-09T16:48:08.565Z,17.70
2023-04-09T16:50:10.832Z,17.72
2023-04-09T16:52:12.382Z,17.71
2023-04-09T16:54:14.050Z,17.76
2023-04-09T16:56:15.612Z,17.77
2023-04-09T16:58:17.169Z,17.75
2023-04-09T17:00:20.203Z,17.72
2023-04-09T17:02:21.856Z,17.69
2023-04-09T17:04:23.654Z,17.67
2023-04-09T17:06:25.322Z,17.68
2023-04-09T17:08:26.923Z,17.62
2023-04-09T17:10:28.506Z,17.53
2023-04-09T17:12:30.099Z,17.54
2023-04-09T17:14:31.753Z,17.53
2023-04-09T17:16:34.640Z,17.53
2023-04-09T17:18:36.299Z,17.50
2023-04-09T17:20:37.871Z,17.45
2023-04-09T17:22:39.439Z,17.39
2023-04-09T17:24:40.971Z,17.41
2023-04-09T17:26:42.493Z,17.46
2023-04-09T17:28:44.260Z,17.46
2023-04-09T17:30:46.012Z,17.39
2023-04-09T17:32:49.747Z,17.41
2023-04-09T17:34:51.412Z,17.41
2023-04-09T17:36:53.028Z,17.39
2023-04-09T17:38:54.805Z,17.37
2023-04-09T17:40:56.535Z,17.37
2023-04-09T17:42:58.088Z,17.37
2023-04-09T17:44:59.632Z,17.36
2023-04-09T17:47:01.278Z,17.35
2023-04-09T17:49:04.315Z,17.22
2023-04-09T17:51:06.823Z,17.13
2023-04-09T17:53:08.341Z,17.04
2023-04-09T17:55:11.122Z,17.24
2023-04-09T17:57:15.062Z,17.32
2023-04-09T17:59:16.580Z,17.28
2023-04-09T18:01:18.532Z,17.27
2023-04-09T18:03:20.283Z,17.22
2023-04-09T18:05:23.562Z,17.20
2023-04-09T18:07:25.525Z,17.16
2023-04-09T18:09:27.033Z,17.12
2023-04-09T18:11:28.560Z,17.09
2023-04-09T18:13:30.138Z,17.06
2023-04-09T18:15:31.784Z,17.05
2023-04-09T18:17:33.396Z,17.07
2023-04-09T18:19:35.117Z,17.05
2023-04-09T18:21:37.982Z,17.02
2023-04-09T18:23:39.489Z,17.00
2023-04-09T18:25:41.117Z,16.96
2023-04-09T18:27:42.675Z,16.99
2023-04-09T18:29:44.354Z,16.92
2023-04-09T18:31:46.060Z,16.96
2023-04-09T18:33:47.797Z,16.88
2023-04-09T18:35:49.397Z,16.83
2023-04-09T18:37:52.342Z,16.74
2023-04-09T18:39:53.912Z,16.74
2023-04-09T18:41:55.470Z,16.76
2023-04-09T18:43:57.041Z,16.78
2023-04-09T18:45:58.683Z,16.74
2023-04-09T18:48:00.330Z,16.74
2023-04-09T18:50:01.965Z,16.78
2023-04-09T18:52:04.206Z,16.76
2023-04-09T18:54:07.106Z,16.78
2023-04-09T18:56:08.640Z,16.68
2023-04-09T18:58:11.025Z,16.62
2023-04-09T19:00:13.478Z,16.57
2023-04-09T19:02:15.238Z,16.56
2023-04-09T19:04:16.979Z,16.35
2023-04-09T19:06:20.726Z,16.26
2023-04-09T19:08:22.319Z,16.17
2023-04-09T19:10:25.359Z,16.30
2023-04-09T19:12:26.982Z,16.23
2023-04-09T19:14:28.578Z,16.20
2023-04-09T19:16:30.139Z,16.16
2023-04-09T19:18:31.972Z,16.13
2023-04-09T19:20:33.545Z,16.11
2023-04-09T19:22:35.066Z,15.98
2023-04-09T19:24:36.652Z,16.01
2023-04-09T19:26:39.580Z,15.91
2023-04-09T19:28:41.149Z,15.91
2023-04-09T19:30:42.714Z,15.87
2023-04-09T19:32:45.514Z,15.82
2023-04-09T19:34:47.153Z,15.67
2023-04-09T19:36:48.692Z,15.66
2023-04-09T19:38:50.563Z,15.66
2023-04-09T19:40:52.241Z,15.64
2023-04-09T19:42:55.134Z,15.64
2023-04-09T19:44:56.693Z,15.62
2023-04-09T19:46:58.384Z,15.58
2023-04-09T19:48:59.974Z,15.55
2023-04-09T19:51:01.621Z,15.48
2023-04-09T19:53:03.371Z,15.43
2023-04-09T19:55:05.924Z,15.40
2023-04-09T19:57:07.487Z,15.40
2023-04-09T19:59:10.379Z,15.39
2023-04-09T20:01:11.998Z,15.38
2023-04-09T20:03:13.842Z,15.40
2023-04-09T20:05:15.688Z,15.38
2023-04-09T20:07:17.162Z,15.39
2023-04-09T20:09:18.719Z,15.35
2023-04-09T20:11:20.311Z,15.32
2023-04-09T20:13:21.823Z,15.26
2023-04-09T20:15:24.992Z,15.20
2023-04-09T20:17:26.511Z,15.15
2023-04-09T20:19:28.078Z,14.98
2023-04-09T20:21:29.715Z,14.87
2023-04-09T20:23:31.328Z,14.93
2023-04-09T20:25:32.934Z,14.88
2023-04-09T20:27:34.480Z,14.84
2023-04-09T20:29:35.984Z,14.85
2023-04-09T20:31:39.001Z,14.80
2023-04-09T20:33:40.586Z,14.80
2023-04-09T20:35:42.120Z,14.83
2023-04-09T20:37:43.688Z,14.84
2023-04-09T20:39:45.232Z,14.87
2023-04-09T20:41:46.788Z,14.86
2023-04-09T20:43:48.287Z,14.81
2023-04-09T20:45:49.908Z,14.81
2023-04-09T20:47:52.847Z,14.76
2023-04-09T20:49:54.452Z,14.73
2023-04-09T20:51:56.050Z,14.73
2023-04-09T20:53:57.997Z,14.64
2023-04-09T20:55:59.553Z,14.64
2023-04-09T20:58:01.191Z,14.57
2023-04-09T21:00:02.743Z,14.56
2023-04-09T21:02:04.485Z,14.57
2023-04-09T21:04:07.802Z,14.51
2023-04-09T21:06:09.567Z,14.40
2023-04-09T21:08:11.074Z,14.39
2023-04-09T21:10:12.598Z,14.35
2023-04-09T21:12:14.116Z,14.32
2023-04-09T21:14:15.629Z,14.27
2023-04-09T21:16:17.649Z,14.29
2023-04-09T21:18:19.463Z,14.29
2023-04-09T21:20:22.400Z,14.31
2023-04-09T21:22:24.018Z,14.39
2023-04-09T21:24:25.567Z,14.48
2023-04-09T21:26:28.117Z,14.46
2023-04-09T21:28:31.742Z,14.50
2023-04-09T21:30:33.427Z,14.56
2023-04-09T21:32:34.968Z,14.57
2023-04-09T21:34:36.530Z,14.56
2023-04-09T21:36:39.503Z,14.54
2023-04-09T21:38:41.167Z,14.47
2023-04-09T21:40:42.728Z,14.49
2023-04-09T21:42:44.265Z,14.48
2023-04-09T21:44:45.835Z,14.44
2023-04-09T21:46:47.532Z,14.38
2023-04-09T21:48:49.088Z,14.37
2023-04-09T21:50:50.666Z,14.30
2023-04-09T21:52:53.580Z,14.27
2023-04-09T21:54:55.178Z,14.33
2023-04-09T21:56:56.722Z,14.34
2023-04-09T21:58:58.288Z,14.31
2023-04-09T22:00:59.917Z,14.28
2023-04-09T22:03:01.776Z,14.28
2023-04-09T22:05:04.083Z,14.29
2023-04-09T22:07:05.708Z,14.30
2023-04-09T22:09:08.645Z,14.34
2023-04-09T22:11:10.272Z,14.33
2023-04-09T22:13:11.814Z,14.29
2023-04-09T22:15:13.389Z,14.31
2023-04-09T22:17:14.969Z,14.31
2023-04-09T22:19:16.539Z,14.35
2023-04-09T22:21:18.195Z,14.44
2023-04-09T22:23:19.770Z,14.47
2023-04-09T22:25:22.853Z,14.35
2023-04-09T22:27:24.619Z,14.38
2023-04-09T22:29:26.778Z,14.25
2023-04-09T22:31:28.416Z,14.23
2023-04-09T22:33:30.133Z,14.27
2023-04-09T22:35:32.215Z,14.27
2023-04-09T22:37:33.799Z,14.33
2023-04-09T22:39:35.293Z,14.14
2023-04-09T22:41:38.484Z,13.96
2023-04-09T22:43:39.988Z,13.90
2023-04-09T22:45:41.546Z,13.82
2023-04-09T22:47:43.131Z,13.76
2023-04-09T22:49:44.737Z,13.78
2023-04-09T22:51:46.287Z,13.75
2023-04-09T22:53:47.849Z,13.76
2023-04-09T22:55:51.028Z,13.73
2023-04-09T22:57:54.123Z,13.68
2023-04-09T22:59:55.742Z,13.70
2023-04-09T23:01:57.343Z,13.70
2023-04-09T23:03:58.925Z,13.71
2023-04-09T23:06:00.646Z,13.80
2023-04-09T23:08:02.250Z,13.79
2023-04-09T23:10:04.122Z,13.86
2023-04-09T23:12:05.689Z,13.84
2023-04-09T23:14:08.612Z,13.82
2023-04-09T23:16:10.609Z,13.73
2023-04-09T23:18:12.257Z,13.79
2023-04-09T23:20:13.901Z,13.76
2023-04-09T23:22:15.494Z,13.78
2023-04-09T23:24:17.069Z,13.79
2023-04-09T23:26:18.728Z,13.73
2023-04-09T23:28:20.249Z,13.73
2023-04-09T23:30:23.194Z,13.76
2023-04-09T23:32:24.787Z,13.73
2023-04-09T23:34:26.305Z,13.76
2023-04-09T23:36:28.246Z,13.78
2023-04-09T23:38:29.814Z,13.76
2023-04-09T23:40:31.336Z,13.77
2023-04-09T23:42:33.125Z,13.77
2023-04-09T23:44:34.709Z,13.68
2023-04-09T23:46:37.722Z,13.70
2023-04-09T23:48:39.797Z,13.68
2023-04-09T23:50:41.788Z,13.61
2023-04-09T23:52:47.345Z,13.58
2023-04-09T23:54:49.124Z,13.51
2023-04-09T23:56:50.645Z,13.41
2023-04-09T23:58:52.126Z,13.45
